createdAt,value
2019-03-01T00:00:58.525Z,19.45
2019-03-01T00:03:28.041Z,18.62
2019-03-01T00:06:05.971Z,19.00
2019-03-01T00:08:54.321Z,18.77
2019-03-01T00:11:44.373Z,19.92
2019-03-01T00:14:16.013Z,17.20
2019-03-01T00:16:50.564Z,20.40
2019-03-01T00:19:55.288Z,21.40
2019-03-01T00:22:45.023Z,18.60
2019-03-01T00:25:31.671Z,16.90
2019-03-01T00:28:18.583Z,15.93
2019-03-01T00:31:10.485Z,16.42
2019-03-01T00:33:57.340Z,21.60
2019-03-01T00:36:40.614Z,17.45
2019-03-01T00:39:39.601Z,15.70
2019-03-01T00:42:32.020Z,20.20
2019-03-01T00:45:00.675Z,14.00
2019-03-01T00:47:29.110Z,14.23
2019-03-01T00:49:57.527Z,18.12
2019-03-01T00:52:26.050Z,22.13
2019-03-01T00:54:54.825Z,22.80
2019-03-01T00:57:23.337Z,22.73
2019-03-01T00:59:51.781Z,19.37
2019-03-01T01:02:20.580Z,15.53
2019-03-01T01:04:49.294Z,20.25
2019-03-01T01:07:17.926Z,23.22
2019-03-01T01:09:59.748Z,15.88
2019-03-01T01:12:27.990Z,17.55
2019-03-01T01:14:56.470Z,17.45
2019-03-01T01:17:25.294Z,18.50
2019-03-01T01:19:53.891Z,22.77
2019-03-01T01:22:22.371Z,24.32
2019-03-01T01:24:50.995Z,23.07
2019-03-01T01:27:21.237Z,20.23
2019-03-01T01:29:49.711Z,24.65
2019-03-01T01:32:18.520Z,28.90
2019-03-01T01:34:46.966Z,21.05
2019-03-01T01:37:15.411Z,24.95
2019-03-01T01:39:44.292Z,23.40
2019-03-01T01:42:12.747Z,23.57
2019-03-01T01:44:41.155Z,25.52
2019-03-01T01:47:10.042Z,28.15
2019-03-01T01:49:38.961Z,22.07
2019-03-01T01:52:09.154Z,29.05
2019-03-01T01:54:47.747Z,24.70
2019-03-01T01:57:16.221Z,30.62
2019-03-01T01:59:44.754Z,25.75
2019-03-01T02:02:13.383Z,23.67
2019-03-01T02:04:41.909Z,21.82
2019-03-01T02:07:11.590Z,20.68
2019-03-01T02:09:46.373Z,20.45
2019-03-01T02:12:14.871Z,18.92
2019-03-01T02:14:43.305Z,26.68
2019-03-01T02:17:11.729Z,29.27
2019-03-01T02:19:40.552Z,23.40
2019-03-01T02:22:09.334Z,23.87
2019-03-01T02:24:37.836Z,26.05
2019-03-01T02:27:21.115Z,22.60
2019-03-01T02:29:49.622Z,19.50
2019-03-01T02:32:21.120Z,20.92
2019-03-01T02:34:49.804Z,32.03
2019-03-01T02:37:18.529Z,25.85
2019-03-01T02:39:46.994Z,27.02
2019-03-01T02:42:15.708Z,25.05
2019-03-01T02:44:44.129Z,21.85
2019-03-01T02:47:12.562Z,29.20
2019-03-01T02:49:41.226Z,21.68
2019-03-01T02:52:09.646Z,29.48
2019-03-01T02:54:38.072Z,27.07
2019-03-01T02:57:06.721Z,24.80
2019-03-01T02:59:35.211Z,25.30
2019-03-01T03:02:04.059Z,25.88
2019-03-01T03:04:32.798Z,28.25
2019-03-01T03:07:11.788Z,27.58
2019-03-01T03:09:40.523Z,24.77
2019-03-01T03:12:09.031Z,30.05
2019-03-01T03:14:37.461Z,31.75
2019-03-01T03:17:06.284Z,27.35
2019-03-01T03:19:34.793Z,27.80
2019-03-01T03:22:03.238Z,32.67
2019-03-01T03:24:31.893Z,33.18
2019-03-01T03:27:00.313Z,27.50
2019-03-01T03:29:30.020Z,29.80
2019-03-01T03:31:58.834Z,29.57
2019-03-01T03:34:27.319Z,35.10
2019-03-01T03:36:55.802Z,31.07
2019-03-01T03:39:24.492Z,36.25
2019-03-01T03:41:53.004Z,33.40
2019-03-01T03:44:21.537Z,33.38
2019-03-01T03:46:50.342Z,37.45
2019-03-01T03:49:18.751Z,34.80
2019-03-01T03:51:47.199Z,37.00
2019-03-01T03:54:15.847Z,30.08
2019-03-01T03:56:44.421Z,34.58
2019-03-01T03:59:12.852Z,35.35
2019-03-01T04:01:41.499Z,39.23
2019-03-01T04:04:10.024Z,32.45
2019-03-01T04:06:38.537Z,34.20
2019-03-01T04:09:07.251Z,33.18
2019-03-01T04:11:35.683Z,28.25
2019-03-01T04:14:04.563Z,34.70
2019-03-01T04:16:33.148Z,67.97
2019-03-01T04:19:01.612Z,54.98
2019-03-01T04:21:30.114Z,29.35
2019-03-01T04:23:58.880Z,29.12
2019-03-01T04:26:27.310Z,26.12
2019-03-01T04:28:55.769Z,31.82
2019-03-01T04:31:24.325Z,53.42
2019-03-01T04:33:52.779Z,60.20
2019-03-01T04:36:21.257Z,61.55
2019-03-01T04:38:49.955Z,36.68
2019-03-01T04:41:18.371Z,34.10
2019-03-01T04:43:46.967Z,31.12
2019-03-01T04:46:20.661Z,31.48
2019-03-01T04:48:49.110Z,27.32
2019-03-01T04:51:17.557Z,25.40
2019-03-01T04:53:46.262Z,37.20
2019-03-01T04:56:14.759Z,30.72
2019-03-01T04:58:43.195Z,34.10
2019-03-01T05:01:12.111Z,28.42
2019-03-01T05:03:40.638Z,31.00
2019-03-01T05:06:09.071Z,29.98
2019-03-01T05:08:37.704Z,30.97
2019-03-01T05:11:06.188Z,30.65
2019-03-01T05:13:34.658Z,30.52
2019-03-01T05:16:03.278Z,29.60
2019-03-01T05:18:31.782Z,33.83
2019-03-01T05:21:00.246Z,32.40
2019-03-01T05:23:29.013Z,29.82
2019-03-01T05:25:57.486Z,34.13
2019-03-01T05:28:25.940Z,32.33
2019-03-01T05:30:54.615Z,29.50
2019-03-01T05:33:23.109Z,26.48
2019-03-01T05:35:51.575Z,30.02
2019-03-01T05:38:21.990Z,34.05
2019-03-01T05:40:50.826Z,29.98
2019-03-01T05:43:19.458Z,27.67
2019-03-01T05:45:47.893Z,34.73
2019-03-01T05:48:16.627Z,33.65
2019-03-01T05:50:45.142Z,27.58
2019-03-01T05:53:13.611Z,33.75
2019-03-01T05:55:42.176Z,33.33
2019-03-01T05:58:31.596Z,33.35
2019-03-01T06:01:21.287Z,34.18
2019-03-01T06:04:04.631Z,35.30
2019-03-01T06:06:55.951Z,30.20
2019-03-01T06:09:27.470Z,42.50
2019-03-01T06:12:13.944Z,40.52
2019-03-01T06:14:51.296Z,40.17
2019-03-01T06:17:38.023Z,42.80
2019-03-01T06:20:12.289Z,115.08
2019-03-01T06:22:49.185Z,56.33
2019-03-01T06:25:26.615Z,54.23
2019-03-01T06:28:10.419Z,77.25
2019-03-01T06:31:13.771Z,68.15
2019-03-01T06:33:51.450Z,56.80
2019-03-01T06:36:37.698Z,53.70
2019-03-01T06:39:17.377Z,54.73
2019-03-01T06:41:54.696Z,53.58
2019-03-01T06:44:35.221Z,59.70
2019-03-01T06:47:26.346Z,59.25
2019-03-01T06:50:02.693Z,65.65
2019-03-01T06:52:31.146Z,61.55
2019-03-01T06:54:59.606Z,66.45
2019-03-01T06:57:28.202Z,74.12
2019-03-01T06:59:56.639Z,74.40
2019-03-01T07:02:30.217Z,86.65
2019-03-01T07:04:58.714Z,92.65
2019-03-01T07:07:27.238Z,88.10
2019-03-01T07:09:55.879Z,106.58
2019-03-01T07:12:24.302Z,134.35
2019-03-01T07:14:52.775Z,107.40
2019-03-01T07:17:21.554Z,112.68
2019-03-01T07:19:49.970Z,103.72
2019-03-01T07:22:18.427Z,110.68
2019-03-01T07:24:47.009Z,111.15
2019-03-01T07:27:15.432Z,115.35
2019-03-01T07:29:43.872Z,114.20
2019-03-01T07:32:12.608Z,110.55
2019-03-01T07:34:41.055Z,110.28
2019-03-01T07:37:09.487Z,120.10
2019-03-01T07:39:38.268Z,115.57
2019-03-01T07:42:06.684Z,130.80
2019-03-01T07:44:35.143Z,134.60
2019-03-01T07:47:04.030Z,125.42
2019-03-01T07:49:32.502Z,132.93
2019-03-01T07:52:01.646Z,141.20
2019-03-01T07:54:31.101Z,146.22
2019-03-01T07:56:59.888Z,152.80
2019-03-01T07:59:28.318Z,167.82
2019-03-01T08:02:00.803Z,166.32
2019-03-01T08:04:29.550Z,175.53
2019-03-01T08:06:58.118Z,183.93
2019-03-01T08:09:26.543Z,170.32
2019-03-01T08:11:54.996Z,186.12
2019-03-01T08:14:24.585Z,196.35
2019-03-01T08:16:56.138Z,200.78
2019-03-01T08:19:24.273Z,198.97
2019-03-01T08:21:52.760Z,189.22
2019-03-01T08:24:21.189Z,205.43
2019-03-01T08:26:49.979Z,205.15
2019-03-01T08:29:18.410Z,204.05
2019-03-01T08:31:46.858Z,194.70
2019-03-01T08:34:17.801Z,195.12
2019-03-01T08:36:46.398Z,199.27
2019-03-01T08:39:14.842Z,203.70
2019-03-01T08:41:43.422Z,218.52
2019-03-01T08:44:11.852Z,210.78
2019-03-01T08:46:42.118Z,198.45
2019-03-01T08:49:11.484Z,200.43
2019-03-01T08:51:40.154Z,203.58
2019-03-01T08:54:09.163Z,213.57
2019-03-01T08:56:42.820Z,198.50
2019-03-01T08:59:14.179Z,218.67
2019-03-01T09:01:41.675Z,233.57
2019-03-01T09:04:17.725Z,232.00
2019-03-01T09:06:44.469Z,207.60
2019-03-01T09:09:13.065Z,178.57
2019-03-01T09:11:44.613Z,188.32
2019-03-01T09:14:11.953Z,194.65
2019-03-01T09:16:41.147Z,173.60
2019-03-01T09:19:09.816Z,211.68
2019-03-01T09:21:39.530Z,186.28
2019-03-01T09:24:08.193Z,208.50
2019-03-01T09:26:36.710Z,186.88
2019-03-01T09:29:05.990Z,172.80
2019-03-01T09:31:34.438Z,151.00
2019-03-01T09:34:05.973Z,166.92
2019-03-01T09:36:36.226Z,167.70
2019-03-01T09:39:08.347Z,151.80
2019-03-01T09:41:40.581Z,147.85
2019-03-01T09:44:08.568Z,154.60
2019-03-01T09:46:37.869Z,143.90
2019-03-01T09:49:06.589Z,136.03
2019-03-01T09:51:35.060Z,134.25
2019-03-01T09:54:06.476Z,134.25
2019-03-01T09:56:34.105Z,127.32
2019-03-01T09:59:02.544Z,126.30
2019-03-01T10:01:31.048Z,134.22
2019-03-01T10:03:59.983Z,135.40
2019-03-01T10:06:37.877Z,138.90
2019-03-01T10:09:00.161Z,131.12
2019-03-01T10:11:28.769Z,137.25
2019-03-01T10:13:57.304Z,129.72
2019-03-01T10:16:25.831Z,377.73
2019-03-01T10:18:54.663Z,142.93
2019-03-01T10:21:23.229Z,122.70
2019-03-01T10:23:51.724Z,118.75
2019-03-01T10:26:20.338Z,121.42
2019-03-01T10:28:48.845Z,140.25
2019-03-01T10:31:17.401Z,138.68
2019-03-01T10:33:46.006Z,138.35
2019-03-01T10:36:14.448Z,139.10
2019-03-01T10:38:42.940Z,138.62
2019-03-01T10:41:11.590Z,153.45
2019-03-01T10:43:40.085Z,137.57
2019-03-01T10:46:08.590Z,128.18
2019-03-01T10:48:37.139Z,157.00
2019-03-01T10:51:05.678Z,146.62
2019-03-01T10:53:34.166Z,160.25
2019-03-01T10:56:02.969Z,141.53
2019-03-01T10:58:31.497Z,128.90
2019-03-01T11:01:00.076Z,144.15
2019-03-01T11:03:28.810Z,133.52
2019-03-01T11:05:57.248Z,133.07
2019-03-01T11:08:25.695Z,127.65
2019-03-01T11:10:54.660Z,130.67
2019-03-01T11:13:23.076Z,133.65
2019-03-01T11:15:51.515Z,120.55
2019-03-01T11:18:20.210Z,136.72
2019-03-01T11:20:48.699Z,126.75
2019-03-01T11:23:17.182Z,119.47
2019-03-01T11:25:45.752Z,107.40
2019-03-01T11:28:14.204Z,107.80
2019-03-01T11:30:42.626Z,116.33
2019-03-01T11:33:11.410Z,105.32
2019-03-01T11:35:40.005Z,90.17
2019-03-01T11:38:08.514Z,95.87
2019-03-01T11:40:40.455Z,80.32
2019-03-01T11:45:36.753Z,75.67
2019-03-01T11:48:05.955Z,84.70
2019-03-01T11:50:34.454Z,73.47
2019-03-01T11:53:02.942Z,71.87
2019-03-01T11:55:31.742Z,74.42
2019-03-01T11:58:00.231Z,81.35
2019-03-01T12:00:29.700Z,72.17
2019-03-01T12:02:58.691Z,77.82
2019-03-01T12:05:27.322Z,119.65
2019-03-01T12:07:55.845Z,76.37
2019-03-01T12:10:31.486Z,80.90
2019-03-01T12:13:00.087Z,72.90
2019-03-01T12:15:28.519Z,74.03
2019-03-01T12:17:57.278Z,67.97
2019-03-01T12:20:28.006Z,74.32
2019-03-01T12:22:56.429Z,70.22
2019-03-01T12:25:25.125Z,77.08
2019-03-01T12:27:53.568Z,64.40
2019-03-01T12:30:24.654Z,63.23
2019-03-01T12:32:53.666Z,72.97
2019-03-01T12:35:22.195Z,54.85
2019-03-01T12:37:50.746Z,65.45
2019-03-01T12:40:32.526Z,69.20
2019-03-01T12:43:01.248Z,68.97
2019-03-01T12:45:29.647Z,60.73
2019-03-01T12:47:58.303Z,74.12
2019-03-01T12:50:26.830Z,76.57
2019-03-01T12:52:55.282Z,105.83
2019-03-01T12:55:26.150Z,111.28
2019-03-01T12:57:54.586Z,91.65
2019-03-01T13:00:34.011Z,108.25
2019-03-01T13:03:05.211Z,72.10
2019-03-01T13:05:33.241Z,56.20
2019-03-01T13:08:02.913Z,56.35
2019-03-01T13:10:36.753Z,84.77
2019-03-01T13:13:08.536Z,82.78
2019-03-01T13:15:37.333Z,67.47
2019-03-01T13:18:05.973Z,69.82
2019-03-01T13:20:37.275Z,64.00
2019-03-01T13:23:06.190Z,62.80
2019-03-01T13:25:34.996Z,62.33
2019-03-01T13:28:03.558Z,57.98
2019-03-01T13:30:32.735Z,63.23
2019-03-01T13:33:03.437Z,51.10
2019-03-01T13:35:32.277Z,64.40
2019-03-01T13:38:00.842Z,71.97
2019-03-01T13:40:29.370Z,62.73
2019-03-01T13:42:57.994Z,72.22
2019-03-01T13:45:26.634Z,71.22
2019-03-01T13:47:56.088Z,83.85
2019-03-01T13:50:24.862Z,76.02
2019-03-01T13:52:53.386Z,67.72
2019-03-01T13:55:23.453Z,58.30
2019-03-01T13:57:52.443Z,50.63
2019-03-01T14:00:22.684Z,53.95
2019-03-01T14:02:51.550Z,49.13
2019-03-01T14:05:22.408Z,43.30
2019-03-01T14:07:55.150Z,41.85
2019-03-01T14:10:31.250Z,51.73
2019-03-01T14:12:59.753Z,48.95
2019-03-01T14:15:29.892Z,59.40
2019-03-01T14:18:01.183Z,76.82
2019-03-01T14:20:29.107Z,84.92
2019-03-01T14:22:57.535Z,75.78
2019-03-01T14:25:29.002Z,76.57
2019-03-01T14:27:58.567Z,58.20
2019-03-01T14:30:30.210Z,57.20
2019-03-01T14:32:58.939Z,60.00
2019-03-01T14:35:27.569Z,47.23
2019-03-01T14:37:55.995Z,46.08
2019-03-01T14:40:25.142Z,47.70
2019-03-01T14:42:53.554Z,41.35
2019-03-01T14:45:26.322Z,40.43
2019-03-01T14:47:56.671Z,35.40
2019-03-01T14:50:30.126Z,42.65
2019-03-01T14:52:58.913Z,55.10
2019-03-01T14:55:51.932Z,44.53
2019-03-01T14:58:23.996Z,39.98
2019-03-01T15:00:55.476Z,41.73
2019-03-01T15:03:35.796Z,53.85
2019-03-01T15:06:05.056Z,49.70
2019-03-01T15:08:33.618Z,44.20
2019-03-01T15:11:07.947Z,39.18
2019-03-01T15:13:35.964Z,37.70
2019-03-01T15:16:06.012Z,46.50
2019-03-01T15:18:35.698Z,36.80
2019-03-01T15:21:05.495Z,40.43
2019-03-01T15:23:34.779Z,37.17
2019-03-01T15:26:04.953Z,31.62
2019-03-01T15:28:35.731Z,36.58
2019-03-01T15:31:04.576Z,34.50
2019-03-01T15:33:33.379Z,36.53
2019-03-01T15:36:01.810Z,35.83
2019-03-01T15:38:30.239Z,30.55
2019-03-01T15:40:58.891Z,29.67
2019-03-01T15:43:30.069Z,32.63
2019-03-01T15:45:59.074Z,34.58
2019-03-01T15:48:28.282Z,32.28
2019-03-01T15:50:59.089Z,32.70
2019-03-01T15:53:28.436Z,37.15
2019-03-01T15:55:57.006Z,33.42
2019-03-01T15:58:25.526Z,34.88
2019-03-01T16:00:54.084Z,37.95
2019-03-01T16:03:25.880Z,38.95
2019-03-01T16:05:54.953Z,41.28
2019-03-01T16:08:23.454Z,35.15
2019-03-01T16:10:51.966Z,36.48
2019-03-01T16:13:22.079Z,27.67
2019-03-01T16:15:50.634Z,32.70
2019-03-01T16:18:19.859Z,29.85
2019-03-01T16:20:48.283Z,29.77
2019-03-01T16:23:16.731Z,29.15
2019-03-01T16:25:45.766Z,30.48
2019-03-01T16:28:14.755Z,33.75
2019-03-01T16:30:43.389Z,32.95
2019-03-01T16:33:11.817Z,45.33
2019-03-01T16:35:40.671Z,27.37
2019-03-01T16:38:09.109Z,31.57
2019-03-01T16:40:37.523Z,42.25
2019-03-01T16:43:06.096Z,56.05
2019-03-01T16:45:36.231Z,29.92
2019-03-01T16:48:04.830Z,28.80
2019-03-01T16:50:33.471Z,32.13
2019-03-01T16:53:04.695Z,34.00
2019-03-01T16:55:32.105Z,27.58
2019-03-01T16:58:06.953Z,29.32
2019-03-01T17:00:31.184Z,33.50
2019-03-01T17:03:16.598Z,34.10
2019-03-01T17:05:41.611Z,70.87
2019-03-01T17:08:10.229Z,39.90
2019-03-01T17:10:39.283Z,24.23
2019-03-01T17:13:08.091Z,35.00
2019-03-01T17:15:36.549Z,36.65
2019-03-01T17:18:05.340Z,37.93
2019-03-01T17:20:37.379Z,30.75
2019-03-01T17:23:04.079Z,28.67
2019-03-01T17:25:32.849Z,28.20
2019-03-01T17:28:01.328Z,27.70
2019-03-01T17:30:29.925Z,26.02
2019-03-01T17:32:58.828Z,29.52
2019-03-01T17:35:27.306Z,25.27
2019-03-01T17:37:55.775Z,21.48
2019-03-01T17:40:24.385Z,24.80
2019-03-01T17:42:53.131Z,22.85
2019-03-01T17:45:25.353Z,25.55
2019-03-01T17:47:55.313Z,20.92
2019-03-01T17:50:23.994Z,13.45
2019-03-01T17:52:52.573Z,20.37
2019-03-01T17:55:30.002Z,16.20
2019-03-01T17:57:58.591Z,18.15
2019-03-01T18:00:42.166Z,11.25
2019-03-01T18:03:11.514Z,24.40
2019-03-01T18:05:40.660Z,16.17
2019-03-01T18:08:10.130Z,25.95
2019-03-01T18:10:39.524Z,18.75
2019-03-01T18:13:08.077Z,11.38
2019-03-01T18:15:36.520Z,18.62
2019-03-01T18:18:08.806Z,10.98
2019-03-01T18:20:37.597Z,16.57
2019-03-01T18:23:07.014Z,18.23
2019-03-01T18:25:35.432Z,17.73
2019-03-01T18:28:03.945Z,17.10
2019-03-01T18:30:37.703Z,18.85
2019-03-01T18:33:06.188Z,20.10
2019-03-01T18:35:37.317Z,16.60
2019-03-01T18:38:06.566Z,22.27
2019-03-01T18:40:35.043Z,22.75
2019-03-01T18:43:03.473Z,16.37
2019-03-01T18:45:32.219Z,19.95
2019-03-01T18:48:00.633Z,24.57
2019-03-01T18:50:37.343Z,18.80
2019-03-01T18:53:05.844Z,16.25
2019-03-01T18:55:34.293Z,24.05
2019-03-01T18:58:03.120Z,18.75
2019-03-01T19:00:36.940Z,21.15
2019-03-01T19:03:07.096Z,54.90
2019-03-01T19:05:36.612Z,23.30
2019-03-01T19:08:06.271Z,20.40
2019-03-01T19:10:36.124Z,24.35
2019-03-01T19:13:04.705Z,22.70
2019-03-01T19:15:33.468Z,23.70
2019-03-01T19:18:02.534Z,18.60
2019-03-01T19:20:41.559Z,20.85
2019-03-01T19:23:11.541Z,119.82
2019-03-01T19:25:40.082Z,51.88
2019-03-01T19:28:09.068Z,31.82
2019-03-01T19:30:38.081Z,24.65
2019-03-01T19:33:06.840Z,23.00
2019-03-01T19:35:35.264Z,18.57
2019-03-01T19:38:04.171Z,21.37
2019-03-01T19:40:32.627Z,41.33
2019-03-01T19:43:01.070Z,21.02
2019-03-01T19:45:30.061Z,19.75
2019-03-01T19:48:03.010Z,17.95
2019-03-01T19:50:29.890Z,18.82
2019-03-01T19:52:58.906Z,19.12
2019-03-01T19:55:27.557Z,18.27
2019-03-01T19:57:56.378Z,18.17
2019-03-01T20:00:29.368Z,17.48
2019-03-01T20:02:57.963Z,18.87
2019-03-01T20:05:33.148Z,14.00
2019-03-01T20:08:02.075Z,12.55
2019-03-01T20:10:30.576Z,14.23
2019-03-01T20:13:00.580Z,14.00
2019-03-01T20:15:30.263Z,12.53
2019-03-01T20:17:59.260Z,12.95
2019-03-01T20:20:29.955Z,13.05
2019-03-01T20:22:59.328Z,14.23
2019-03-01T20:25:27.791Z,14.45
2019-03-01T20:27:56.281Z,11.83
2019-03-01T20:30:30.311Z,24.07
2019-03-01T20:33:03.680Z,88.27
2019-03-01T20:35:32.187Z,11.70
2019-03-01T20:38:04.337Z,14.00
2019-03-01T20:40:30.926Z,14.95
2019-03-01T20:43:06.273Z,8.73
2019-03-01T20:45:35.120Z,11.97
2019-03-01T20:48:03.692Z,10.48
2019-03-01T20:50:32.143Z,9.55
2019-03-01T20:53:00.715Z,9.85
2019-03-01T20:55:29.135Z,9.38
2019-03-01T20:57:59.708Z,13.50
2019-03-01T21:00:29.809Z,33.73
2019-03-01T21:02:58.749Z,22.25
2019-03-01T21:05:30.230Z,11.38
2019-03-01T21:07:57.585Z,10.38
2019-03-01T21:10:30.308Z,7.85
2019-03-01T21:12:58.743Z,11.28
2019-03-01T21:15:27.343Z,12.35
2019-03-01T21:17:56.939Z,9.53
2019-03-01T21:20:26.387Z,21.70
2019-03-01T21:22:54.989Z,17.23
2019-03-01T21:25:26.909Z,17.50
2019-03-01T21:30:32.409Z,7.87
2019-03-01T21:33:01.001Z,8.40
2019-03-01T21:35:29.429Z,16.00
2019-03-01T21:37:58.052Z,9.98
2019-03-01T21:40:26.461Z,8.65
2019-03-01T21:42:57.246Z,12.35
2019-03-01T21:45:29.698Z,8.13
2019-03-01T21:47:58.151Z,8.70
2019-03-01T21:50:26.675Z,11.20
2019-03-01T21:52:55.773Z,10.72
2019-03-01T21:55:28.907Z,12.33
2019-03-01T21:58:09.526Z,13.78
2019-03-01T22:00:37.954Z,13.98
2019-03-01T22:03:06.402Z,57.00
2019-03-01T22:05:36.074Z,111.70
2019-03-01T22:08:04.601Z,20.95
2019-03-01T22:10:35.620Z,13.68
2019-03-01T22:13:03.687Z,16.62
2019-03-01T22:15:32.100Z,16.95
2019-03-01T22:18:00.516Z,15.60
2019-03-01T22:20:35.606Z,17.17
2019-03-01T22:23:04.174Z,16.10
2019-03-01T22:25:34.587Z,16.07
2019-03-01T22:28:08.212Z,21.10
2019-03-01T22:30:36.631Z,16.37
2019-03-01T22:33:05.034Z,19.02
2019-03-01T22:35:33.697Z,46.13
2019-03-01T22:38:04.620Z,31.15
2019-03-01T22:40:32.267Z,28.32
2019-03-01T22:43:01.026Z,29.70
2019-03-01T22:45:29.447Z,30.30
2019-03-01T22:48:01.511Z,27.37
2019-03-01T22:50:30.362Z,29.35
2019-03-01T22:53:03.128Z,31.33
2019-03-01T22:55:33.529Z,22.55
2019-03-01T22:58:01.747Z,24.90
2019-03-01T23:00:54.453Z,23.92
2019-03-01T23:03:25.094Z,21.65
2019-03-01T23:05:53.793Z,24.92
2019-03-01T23:08:24.186Z,26.20
2019-03-01T23:10:53.785Z,25.52
2019-03-01T23:13:23.249Z,25.60
2019-03-01T23:15:52.081Z,23.27
2019-03-01T23:18:20.627Z,23.10
2019-03-01T23:20:49.058Z,26.12
2019-03-01T23:23:22.534Z,24.27
2019-03-01T23:25:48.984Z,26.07
2019-03-01T23:28:17.461Z,21.68
2019-03-01T23:30:45.922Z,26.90
2019-03-01T23:33:14.856Z,22.30
2019-03-01T23:35:43.310Z,25.27
2019-03-01T23:38:14.905Z,22.45
2019-03-01T23:40:42.295Z,25.08
2019-03-01T23:43:10.719Z,21.27
2019-03-01T23:45:39.181Z,22.32
2019-03-01T23:48:10.701Z,21.20
2019-03-01T23:50:38.237Z,20.15
2019-03-01T23:53:06.697Z,24.05
2019-03-01T23:55:36.246Z,19.60
2019-03-01T23:58:06.238Z,27.67
